createdAt,value
2023-05-11T00:01:07.457Z,1.00
2023-05-11T00:06:08.974Z,0.90
2023-05-11T00:11:10.555Z,1.30
2023-05-11T00:16:12.192Z,1.30
2023-05-11T00:21:13.790Z,1.63
2023-05-11T00:26:15.508Z,1.20
2023-05-11T00:31:18.979Z,1.30
2023-05-11T00:36:21.067Z,1.10
2023-05-11T00:41:22.652Z,0.93
2023-05-11T00:46:24.354Z,1.45
2023-05-11T00:51:25.958Z,1.92
2023-05-11T00:56:27.637Z,1.80
2023-05-11T01:01:29.149Z,2.20
2023-05-11T01:06:55.512Z,2.30
2023-05-11T01:12:07.765Z,3.20
2023-05-11T01:17:18.245Z,3.42
2023-05-11T01:22:38.304Z,4.13
2023-05-11T01:28:17.390Z,4.53
2023-05-11T01:33:26.168Z,3.33
2023-05-11T01:38:32.756Z,3.22
2023-05-11T01:48:40.963Z,3.10
2023-05-11T01:53:44.853Z,3.05
2023-05-11T01:58:46.914Z,4.10
2023-05-11T02:03:49.939Z,4.20
2023-05-11T02:08:53.327Z,5.40
2023-05-11T02:13:58.148Z,5.65
2023-05-11T02:18:59.972Z,5.85
2023-05-11T02:24:04.953Z,5.82
2023-05-11T02:29:06.757Z,5.90
2023-05-11T02:34:35.757Z,5.10
2023-05-11T02:39:40.285Z,5.20
2023-05-11T02:44:50.784Z,3.47
2023-05-11T02:49:55.742Z,2.03
2023-05-11T02:55:01.195Z,2.88
2023-05-11T03:00:03.169Z,2.60
2023-05-11T03:05:05.580Z,2.78
2023-05-11T03:10:08.132Z,3.00
2023-05-11T03:15:15.821Z,2.42
2023-05-11T03:20:22.552Z,3.23
2023-05-11T03:25:24.912Z,2.90
2023-05-11T03:30:29.064Z,2.90
2023-05-11T03:35:34.878Z,4.63
2023-05-11T03:40:39.119Z,3.70
2023-05-11T03:45:43.580Z,4.00
2023-05-11T03:50:46.922Z,5.15
2023-05-11T03:55:49.975Z,4.43
2023-05-11T04:00:51.930Z,5.25
2023-05-11T04:05:53.523Z,4.18
2023-05-11T04:10:55.064Z,3.83
2023-05-11T04:15:56.578Z,4.28
2023-05-11T04:20:58.220Z,4.85
2023-05-11T04:26:01.206Z,4.32
2023-05-11T04:31:02.824Z,4.65
2023-05-11T04:36:05.253Z,5.53
2023-05-11T04:41:08.207Z,6.13
2023-05-11T04:46:10.847Z,7.75
2023-05-11T04:51:12.766Z,9.88
2023-05-11T04:56:18.386Z,9.57
2023-05-11T05:01:20.048Z,7.15
2023-05-11T05:06:21.863Z,5.95
2023-05-11T05:11:23.466Z,5.25
2023-05-11T05:16:25.645Z,4.82
2023-05-11T05:21:27.560Z,4.60
2023-05-11T05:26:30.750Z,5.55
2023-05-11T05:31:33.212Z,5.85
2023-05-11T05:36:37.594Z,5.93
2023-05-11T05:41:39.318Z,9.27
2023-05-11T05:46:43.635Z,11.65
2023-05-11T05:51:45.446Z,10.98
2023-05-11T05:56:47.663Z,10.02
2023-05-11T06:01:51.064Z,8.88
2023-05-11T06:06:54.119Z,10.20
2023-05-11T06:11:55.878Z,11.07
2023-05-11T06:16:59.327Z,11.02
2023-05-11T06:22:05.844Z,12.13
2023-05-11T06:27:09.846Z,10.93
2023-05-11T06:32:11.709Z,11.35
2023-05-11T06:37:13.672Z,12.18
2023-05-11T06:42:15.396Z,10.18
2023-05-11T06:47:17.045Z,11.68
2023-05-11T06:52:18.892Z,10.77
2023-05-11T06:57:20.500Z,11.10
2023-05-11T07:02:22.020Z,11.57
2023-05-11T07:07:23.883Z,11.35
2023-05-11T07:12:25.520Z,12.48
2023-05-11T07:17:27.127Z,11.32
2023-05-11T07:22:28.648Z,11.32
2023-05-11T07:27:30.151Z,10.05
2023-05-11T07:32:32.417Z,10.70
2023-05-11T07:37:33.946Z,10.68
2023-05-11T07:42:35.497Z,10.45
2023-05-11T07:47:37.215Z,11.18
2023-05-11T07:52:38.899Z,10.98
2023-05-11T07:57:40.506Z,9.10
2023-05-11T08:02:42.229Z,9.63
2023-05-11T08:07:43.901Z,10.45
2023-05-11T08:12:45.504Z,10.75
2023-05-11T08:17:47.024Z,7.22
2023-05-11T08:22:48.601Z,5.68
2023-05-11T08:27:50.286Z,7.22
2023-05-11T08:32:58.668Z,8.15
2023-05-11T08:38:00.967Z,8.60
2023-05-11T08:43:04.878Z,9.32
2023-05-11T08:48:06.844Z,9.38
2023-05-11T08:53:08.629Z,9.93
2023-05-11T08:58:10.880Z,9.05
2023-05-11T09:03:13.039Z,8.70
2023-05-11T09:08:17.976Z,8.15
2023-05-11T09:13:20.039Z,6.87
2023-05-11T09:18:21.642Z,6.97
2023-05-11T09:23:26.487Z,7.57
2023-05-11T09:28:35.521Z,10.82
2023-05-11T09:33:37.652Z,11.50
2023-05-11T09:38:39.346Z,11.07
2023-05-11T09:43:41.035Z,9.98
2023-05-11T09:48:42.562Z,10.35
2023-05-11T09:53:45.461Z,9.55
2023-05-11T09:58:50.287Z,9.85
2023-05-11T10:03:54.006Z,9.50
2023-05-11T10:09:08.672Z,8.07
2023-05-11T10:14:12.657Z,7.88
2023-05-11T10:19:14.962Z,8.30
2023-05-11T10:24:18.956Z,8.68
2023-05-11T10:29:22.416Z,8.15
2023-05-11T10:34:24.589Z,6.43
2023-05-11T10:39:26.485Z,6.43
2023-05-11T10:44:27.935Z,6.75
2023-05-11T10:49:38.552Z,5.57
2023-05-11T10:54:54.499Z,6.10
2023-05-11T10:59:55.945Z,5.45
2023-05-11T11:04:57.557Z,6.25
2023-05-11T11:10:02.014Z,6.53
2023-05-11T11:15:07.477Z,8.52
2023-05-11T11:20:09.513Z,7.00
2023-05-11T11:25:12.218Z,6.30
2023-05-11T11:30:17.544Z,7.05
2023-05-11T11:35:40.922Z,7.07
2023-05-11T11:46:02.019Z,7.80
2023-05-11T11:51:08.969Z,7.55
2023-05-11T11:56:16.429Z,7.72
2023-05-11T12:01:20.517Z,7.80
2023-05-11T12:06:26.696Z,7.70
2023-05-11T12:11:29.959Z,7.70
2023-05-11T12:16:31.610Z,6.70
2023-05-11T12:21:33.275Z,7.93
2023-05-11T12:26:35.166Z,7.22
2023-05-11T12:31:42.444Z,7.65
2023-05-11T12:36:45.892Z,6.78
2023-05-11T12:41:49.147Z,6.20
2023-05-11T12:46:51.153Z,6.13
2023-05-11T12:52:02.045Z,7.75
2023-05-11T12:57:04.547Z,6.93
2023-05-11T13:02:07.288Z,6.88
2023-05-11T13:07:09.998Z,7.65
2023-05-11T13:12:17.985Z,8.30
2023-05-11T13:17:37.301Z,7.85
2023-05-11T13:22:39.022Z,8.10
2023-05-11T13:27:40.544Z,8.07
2023-05-11T13:32:42.082Z,6.70
2023-05-11T13:37:43.803Z,7.80
2023-05-11T13:42:45.311Z,7.82
2023-05-11T13:47:46.891Z,6.80
2023-05-11T13:52:48.493Z,8.88
2023-05-11T13:57:51.040Z,7.97
2023-05-11T14:02:52.865Z,7.22
2023-05-11T14:07:54.540Z,7.65
2023-05-11T14:12:56.103Z,7.43
2023-05-11T14:17:57.972Z,8.60
2023-05-11T14:22:59.588Z,8.15
2023-05-11T14:28:01.197Z,7.80
2023-05-11T14:33:02.755Z,7.80
2023-05-11T14:38:04.294Z,8.50
2023-05-11T14:43:05.895Z,8.48
2023-05-11T14:48:07.700Z,7.80
2023-05-11T14:53:09.635Z,8.60
2023-05-11T14:58:11.206Z,8.95
2023-05-11T15:03:12.821Z,7.90
2023-05-11T15:08:28.419Z,8.57
2023-05-11T15:13:31.465Z,7.82
2023-05-11T15:18:33.087Z,9.00
2023-05-11T15:23:34.658Z,8.60
2023-05-11T15:28:36.243Z,9.55
2023-05-11T15:33:37.842Z,9.63
2023-05-11T15:38:40.344Z,11.07
2023-05-11T15:43:41.898Z,11.55
2023-05-11T15:48:43.419Z,10.70
2023-05-11T15:53:45.665Z,13.48
2023-05-11T15:58:47.203Z,13.35
2023-05-11T16:03:48.730Z,12.52
2023-05-11T16:08:50.280Z,13.98
2023-05-11T16:13:51.925Z,12.75
2023-05-11T16:18:53.574Z,13.63
2023-05-11T16:23:55.150Z,14.48
2023-05-11T16:28:56.805Z,15.40
2023-05-11T16:33:58.407Z,14.38
2023-05-11T16:39:00.172Z,14.77
2023-05-11T16:44:01.726Z,17.30
2023-05-11T16:49:03.262Z,21.02
2023-05-11T16:54:04.791Z,22.15
2023-05-11T16:59:06.558Z,24.38
2023-05-11T17:04:08.158Z,24.00
2023-05-11T17:09:09.703Z,24.80
2023-05-11T17:14:11.254Z,23.15
2023-05-11T17:19:12.907Z,25.75
2023-05-11T17:24:14.709Z,28.25
2023-05-11T17:29:16.729Z,27.80
2023-05-11T17:34:19.089Z,28.30
2023-05-11T17:39:21.217Z,27.92
2023-05-11T17:44:22.765Z,28.67
2023-05-11T17:49:24.332Z,29.45
2023-05-11T17:54:25.912Z,28.13
2023-05-11T17:59:27.439Z,26.33
2023-05-11T18:04:29.636Z,26.08
2023-05-11T18:09:31.193Z,27.30
2023-05-11T18:14:32.917Z,28.05
2023-05-11T18:19:34.460Z,28.92
2023-05-11T18:24:35.996Z,27.30
2023-05-11T18:29:37.554Z,26.27
2023-05-11T18:34:39.143Z,25.80
2023-05-11T18:39:40.772Z,26.05
2023-05-11T18:44:42.306Z,26.13
2023-05-11T18:49:47.680Z,23.38
2023-05-11T18:54:50.520Z,24.58
2023-05-11T18:59:52.555Z,20.92
2023-05-11T19:04:54.058Z,23.73
2023-05-11T19:09:56.025Z,22.52
2023-05-11T19:14:57.554Z,19.33
2023-05-11T19:19:59.100Z,18.08
2023-05-11T19:25:00.881Z,18.52
2023-05-11T19:30:02.500Z,16.67
2023-05-11T19:35:05.143Z,17.45
2023-05-11T19:40:42.959Z,17.70
2023-05-11T19:45:29.086Z,18.17
2023-05-11T19:50:30.668Z,16.40
2023-05-11T19:55:32.244Z,18.17
2023-05-11T20:00:33.897Z,18.70
2023-05-11T20:05:35.622Z,19.00
2023-05-11T20:10:37.226Z,18.63
2023-05-11T20:15:38.766Z,20.95
2023-05-11T20:20:40.282Z,18.73
2023-05-11T20:25:41.916Z,17.92
2023-05-11T20:30:45.728Z,20.48
2023-05-11T20:35:47.318Z,19.05
2023-05-11T20:40:49.047Z,27.25
2023-05-11T20:45:50.618Z,30.83
2023-05-11T20:50:52.180Z,31.33
2023-05-11T20:55:53.791Z,30.63
2023-05-11T21:00:55.344Z,34.08
2023-05-11T21:05:56.933Z,35.92
2023-05-11T21:10:58.683Z,37.33
2023-05-11T21:16:00.195Z,38.03
2023-05-11T21:21:02.210Z,38.05
2023-05-11T21:26:03.776Z,33.97
2023-05-11T21:31:05.437Z,33.95
2023-05-11T21:36:07.292Z,34.92
2023-05-11T21:41:08.849Z,34.95
2023-05-11T21:46:10.475Z,35.53
2023-05-11T21:51:12.034Z,34.35
2023-05-11T21:56:13.584Z,35.50
2023-05-11T22:01:15.253Z,33.25
2023-05-11T22:06:16.868Z,32.80
2023-05-11T22:11:18.410Z,31.15
2023-05-11T22:16:20.135Z,33.08
2023-05-11T22:21:21.763Z,29.67
2023-05-11T22:26:23.313Z,29.98
2023-05-11T22:31:24.949Z,31.48
2023-05-11T22:36:26.506Z,28.80
2023-05-11T22:41:28.020Z,30.60
2023-05-11T22:46:29.709Z,27.85
2023-05-11T22:51:31.342Z,29.40
2023-05-11T22:56:32.885Z,31.98
2023-05-11T23:01:34.490Z,31.50
2023-05-11T23:06:36.231Z,31.48
2023-05-11T23:11:37.730Z,31.23
2023-05-11T23:16:39.348Z,30.88
2023-05-11T23:21:40.849Z,30.25
2023-05-11T23:26:46.132Z,29.80
2023-05-11T23:31:47.728Z,29.50
2023-05-11T23:36:49.331Z,29.08
2023-05-11T23:41:50.892Z,30.05
2023-05-11T23:46:52.478Z,28.77
2023-05-11T23:51:54.333Z,28.45
2023-05-11T23:56:55.850Z,31.33
